| time (UTC) | temp F | wind direction | speed MPH | gust MPH | rain 1hr in | rain 24hr in | rain mn in | humidity % | barometer mb |
| 20260905151624 | 74 | 48 | 11.0 | 17.0 | 0.00 | 0.00 | 0.00 | 65 | 1011.0 |
| 20260905150105 | 74 | 18 | 8.0 | 15.0 | 0.00 | 0.00 | 0.00 | 65 | 1011.0 |
| 20260905144609 | 74 | 31 | 11.0 | 16.0 | 0.00 | 0.00 | 0.00 | 64 | 1010.9 |
| 20260905143103 | 73 | 20 | 12.0 | 17.0 | 0.00 | 0.00 | 0.00 | 64 | 1010.9 |
| 20260905141603 | 73 | 14 | 10.0 | 14.0 | 0.00 | 0.00 | 0.00 | 66 | 1010.9 |
| 20260905140105 | 73 | 9 | 9.0 | 13.0 | 0.00 | 0.00 | 0.00 | 69 | 1010.6 |
| 20260905134605 | 72 | 19 | 8.0 | 12.0 | 0.00 | 0.00 | 0.00 | 68 | 1010.7 |
| 20260905133100 | 72 | 4 | 6.0 | 11.0 | 0.00 | 0.00 | 0.00 | 68 | 1010.7 |
| 20260905131607 | 71 | 355 | 5.0 | 9.0 | 0.00 | 0.00 | 0.00 | 69 | 1010.8 |
| 20260905124601 | 71 | 13 | 5.0 | 10.0 | 0.00 | 0.00 | 0.00 | 70 | 1011.2 |
| 20260905123104 | 70 | 5 | 5.0 | 11.0 | 0.00 | 0.00 | 0.00 | 71 | 1011.2 |
| 20260905121605 | 70 | 23 | 8.0 | 11.0 | 0.00 | 0.00 | 0.00 | 72 | 1011.2 |
| 20260905120101 | 70 | 27 | 6.0 | 9.0 | 0.00 | 0.00 | 0.00 | 72 | 1011.2 |
| 20260905114604 | 70 | 360 | 5.0 | 11.0 | 0.00 | 0.00 | 0.00 | 72 | 1011.2 |
| 20260905113101 | 70 | 25 | 7.0 | 10.0 | 0.00 | 0.00 | 0.00 | 71 | 1011.0 |
| 20260905111603 | 70 | 17 | 5.0 | 11.0 | 0.00 | 0.00 | 0.00 | 71 | 1010.8 |
| 20260905110111 | 70 | 12 | 7.0 | 12.0 | 0.00 | 0.00 | 0.00 | 71 | 1010.5 |
| 20260905104601 | 70 | 13 | 7.0 | 12.0 | 0.00 | 0.00 | 0.00 | 71 | 1010.4 |
| 20260905103102 | 70 | 355 | 8.0 | 11.0 | 0.00 | 0.00 | 0.00 | 71 | 1010.4 |
| 20260905101611 | 70 | 11 | 8.0 | 11.0 | 0.00 | 0.00 | 0.00 | 70 | 1010.2 |
| 20260905100105 | 71 | 23 | 7.0 | 10.0 | 0.00 | 0.00 | 0.00 | 69 | 1010.3 |
| 20260905094603 | 71 | 11 | 7.0 | 11.0 | 0.00 | 0.00 | 0.00 | 68 | 1010.3 |
| 20260905093126 | 71 | 347 | 7.0 | 13.0 | 0.00 | 0.00 | 0.00 | 68 | 1010.2 |
| 20260905091607 | 72 | 19 | 8.0 | 11.0 | 0.00 | 0.00 | 0.00 | 67 | 1010.1 |
| 20260905084604 | 72 | 11 | 7.0 | 10.0 | 0.00 | 0.00 | 0.00 | 67 | 1010.1 |
| 20260905083108 | 73 | 20 | 9.0 | 12.0 | 0.00 | 0.00 | 0.00 | 67 | 1010.2 |
| 20260905081604 | 73 | 337 | 8.0 | 12.0 | 0.00 | 0.00 | 0.00 | 67 | 1010.2 |
| 20260905080107 | 73 | 7 | 8.0 | 12.0 | 0.00 | 0.00 | 0.00 | 64 | 1010.2 |
| 20260905074604 | 73 | 360 | 7.0 | 12.0 | 0.00 | 0.00 | 0.00 | 64 | 1010.3 |
| 20260905073108 | 74 | 8 | 8.0 | 11.0 | 0.00 | 0.00 | 0.00 | 64 | 1010.3 |
| 20260905071603 | 74 | 355 | 8.0 | 13.0 | 0.00 | 0.00 | 0.00 | 62 | 1010.2 |
| 20260905070117 | 74 | 11 | 10.0 | 17.0 | 0.00 | 0.00 | 0.00 | 64 | 1010.1 |
| 20260905064603 | 74 | 14 | 10.0 | 14.0 | 0.00 | 0.00 | 0.00 | 67 | 1010.0 |
| 20260905063106 | 75 | 360 | 11.0 | 14.0 | 0.00 | 0.00 | 0.00 | 65 | 1010.1 |
| 20260905061610 | 75 | 19 | 9.0 | 12.0 | 0.00 | 0.00 | 0.00 | 66 | 1010.3 |
| 20260905060128 | 75 | 13 | 7.0 | 12.0 | 0.00 | 0.00 | 0.00 | 67 | 1010.4 |
| 20260905054615 | 75 | 10 | 6.0 | 12.0 | 0.00 | 0.00 | 0.00 | 65 | 1010.6 |
| 20260905053117 | 75 | 360 | 6.0 | 10.0 | 0.00 | 0.00 | 0.00 | 65 | 1010.9 |
| 20260905051609 | 75 | 12 | 4.0 | 9.0 | 0.00 | 0.00 | 0.00 | 67 | 1010.9 |
| 20260905050115 | 75 | 20 | 8.0 | 10.0 | 0.00 | 0.00 | 0.00 | 67 | 1011.0 |
| 20260905044620 | 75 | 12 | 7.0 | 10.0 | 0.00 | 0.00 | 0.00 | 66 | 1011.0 |
| 20260905043112 | 75 | 9 | 9.0 | 12.0 | 0.00 | 0.00 | 0.00 | 66 | 1011.1 |
| 20260905041601 | 76 | 14 | 9.0 | 13.0 | 0.00 | 0.00 | 0.00 | 67 | 1011.1 |
| 20260905040103 | 76 | 22 | 8.0 | 11.0 | 0.00 | 0.00 | 0.00 | 66 | 1011.2 |
| 20260905034613 | 76 | 5 | 8.0 | 15.0 | 0.00 | 0.00 | 0.00 | 65 | 1011.2 |
| 20260905033105 | 76 | 13 | 11.0 | 16.0 | 0.00 | 0.00 | 0.00 | 64 | 1011.0 |
| 20260905031608 | 77 | 346 | 9.0 | 12.0 | 0.00 | 0.00 | 0.00 | 64 | 1011.0 |
| 20260905030107 | 77 | 15 | 7.0 | 11.0 | 0.00 | 0.00 | 0.00 | 63 | 1011.0 |
| 20260905024604 | 77 | 355 | 7.0 | 10.0 | 0.00 | 0.00 | 0.00 | 62 | 1010.9 |
| 20260905023103 | 78 | 20 | 6.0 | 10.0 | 0.00 | 0.00 | 0.00 | 63 | 1010.9 |
| 20260905021606 | 78 | 347 | 7.0 | 12.0 | 0.00 | 0.00 | 0.00 | 61 | 1011.0 |
| 20260905020104 | 78 | 25 | 7.0 | 10.0 | 0.00 | 0.00 | 0.00 | 62 | 1011.1 |
| 20260905014601 | 78 | 21 | 5.0 | 9.0 | 0.00 | 0.00 | 0.00 | 62 | 1011.2 |
| 20260905013102 | 79 | 18 | 5.0 | 9.0 | 0.00 | 0.00 | 0.00 | 62 | 1011.2 |
| 20260905011602 | 79 | 8 | 6.0 | 10.0 | 0.00 | 0.00 | 0.00 | 62 | 1011.2 |
| 20260905010107 | 79 | 12 | 6.0 | 10.0 | 0.00 | 0.00 | 0.00 | 59 | 1011.0 |
| 20260905004636 | 80 | 4 | 7.0 | 10.0 | 0.00 | 0.00 | 0.00 | 60 | 1011.0 |
| 20260905003101 | 80 | 25 | 5.0 | 8.0 | 0.00 | 0.00 | 0.00 | 60 | 1011.0 |
| 20260905001603 | 80 | 12 | 5.0 | 9.0 | 0.00 | 0.00 | 0.00 | 59 | 1010.9 |
| 20260904234600 | 80 | 13 | 8.0 | 12.0 | 0.00 | 0.00 | 0.00 | 55 | 1010.7 |
| 20260904233103 | 81 | 4 | 3.0 | 12.0 | 0.00 | 0.00 | 0.00 | 58 | 1010.8 |
| 20260904231607 | 81 | 303 | 7.0 | 14.0 | 0.00 | 0.00 | 0.00 | 55 | 1010.8 |
| 20260904230128 | 82 | 289 | 7.0 | 14.0 | 0.00 | 0.00 | 0.00 | 54 | 1010.7 |
| 20260904224604 | 82 | 4 | 4.0 | 9.0 | 0.00 | 0.00 | 0.00 | 56 | 1010.7 |
| 20260904223107 | 83 | 281 | 7.0 | 13.0 | 0.00 | 0.00 | 0.00 | 54 | 1010.8 |
| 20260904221610 | 83 | 299 | 7.0 | 13.0 | 0.00 | 0.00 | 0.00 | 53 | 1010.9 |
| 20260904220110 | 83 | 324 | 8.0 | 13.0 | 0.00 | 0.00 | 0.00 | 53 | 1010.8 |
| 20260904214606 | 83 | 298 | 8.0 | 14.0 | 0.00 | 0.00 | 0.00 | 51 | 1010.6 |
| 20260904213105 | 83 | 345 | 5.0 | 12.0 | 0.00 | 0.00 | 0.00 | 55 | 1010.4 |
| 20260904211604 | 83 | 347 | 6.0 | 11.0 | 0.00 | 0.00 | 0.00 | 52 | 1010.3 |
| 20260904210109 | 83 | 310 | 5.0 | 13.0 | 0.00 | 0.00 | 0.00 | 54 | 1010.6 |
| 20260904204605 | 83 | 293 | 11.0 | 16.0 | 0.00 | 0.00 | 0.00 | 50 | 1010.8 |
| 20260904203110 | 83 | 289 | 9.0 | 16.0 | 0.00 | 0.00 | 0.00 | 50 | 1010.9 |
| 20260904201604 | 83 | 299 | 5.0 | 13.0 | 0.00 | 0.00 | 0.00 | 53 | 1010.8 |
| 20260904200106 | 83 | 243 | 10.0 | 15.0 | 0.00 | 0.00 | 0.00 | 52 | 1011.1 |
| 20260904194610 | 83 | 308 | 7.0 | 16.0 | 0.00 | 0.00 | 0.00 | 52 | 1011.2 |
| 20260904193100 | 82 | 292 | 7.0 | 15.0 | 0.00 | 0.00 | 0.00 | 53 | 1011.2 |
| 20260904191602 | 82 | 312 | 5.0 | 17.0 | 0.00 | 0.00 | 0.00 | 53 | 1011.3 |
| 20260904190110 | 82 | 329 | 8.0 | 15.0 | 0.00 | 0.00 | 0.00 | 52 | 1011.6 |
| 20260904184602 | 82 | 280 | 5.0 | 26.0 | 0.00 | 0.00 | 0.00 | 55 | 1011.7 |
| 20260904183116 | 82 | 7 | 4.0 | 17.0 | 0.00 | 0.00 | 0.00 | 56 | 1011.7 |
| 20260904181604 | 82 | 313 | 4.0 | 11.0 | 0.00 | 0.00 | 0.00 | 56 | 1011.7 |
| 20260904180110 | 81 | 11 | 8.0 | 13.0 | 0.00 | 0.00 | 0.00 | 56 | 1011.7 |
| 20260904174604 | 81 | 345 | 9.0 | 19.0 | 0.00 | 0.00 | 0.00 | 56 | 1011.6 |
| 20260904173105 | 81 | 11 | 8.0 | 16.0 | 0.00 | 0.00 | 0.00 | 57 | 1011.6 |
| 20260904171601 | 81 | 334 | 7.0 | 16.0 | 0.00 | 0.00 | 0.00 | 57 | 1011.6 |
| 20260904170105 | 81 | 8 | 13.0 | 20.0 | 0.00 | 0.00 | 0.00 | 57 | 1011.7 |
| 20260904164612 | 81 | 302 | 12.0 | 19.0 | 0.00 | 0.00 | 0.00 | 60 | 1011.7 |
| 20260904163108 | 81 | 15 | 11.0 | 18.0 | 0.00 | 0.00 | 0.00 | 58 | 1011.6 |
| 20260904161603 | 81 | 360 | 15.0 | 21.0 | 0.00 | 0.00 | 0.00 | 58 | 1011.7 |
| 20260904160108 | 81 | 304 | 6.0 | 22.0 | 0.00 | 0.00 | 0.00 | 61 | 1011.8 |
| 20260904154604 | 81 | 342 | 7.0 | 17.0 | 0.00 | 0.00 | 0.00 | 61 | 1011.8 |
| 20260904153108 | 80 | 8 | 10.0 | 15.0 | 0.00 | 0.00 | 0.00 | 61 | 1011.9 |